Time;durP1;ratioP1;P1;durP2;ratioP2;P2;SDS_P1;SDS_P2;PMS_P1;PMS_P2;Temp;Humidity;BMP_temperature;BMP_pressure;BME280_temperature;BME280_humidity;BME280_pressure;Samples;Min_cycle;Max_cycle;Signal;HPM_P1;HPM_P2
2021/11/22 00:01:13;;;;;;;12.23;11.73;;;20.30;83.00;;;;;;5052730;28;20444;-49
2021/11/22 00:03:40;;;;;;;12.10;11.80;;;20.20;83.40;;;;;;5052479;28;20821;-49
2021/11/22 00:06:07;;;;;;;12.87;12.37;;;20.20;84.00;;;;;;5052601;28;20450;-53
2021/11/22 00:08:34;;;;;;;13.57;13.07;;;20.20;84.20;;;;;;5052035;28;20547;-47
2021/11/22 00:11:01;;;;;;;12.97;12.57;;;20.20;84.80;;;;;;5052248;28;20901;-48
2021/11/22 00:13:28;;;;;;;13.00;12.60;;;20.20;84.70;;;;;;5052355;28;20448;-51
2021/11/22 00:15:57;;;;;;;13.40;13.00;;;20.20;85.00;;;;;;5052275;28;20455;-53
2021/11/22 00:18:24;;;;;;;12.77;12.37;;;20.20;85.40;;;;;;5052297;28;20472;-48
2021/11/22 00:20:51;;;;;;;14.10;13.60;;;20.20;85.60;;;;;;5052209;28;20444;-55
2021/11/22 00:23:18;;;;;;;13.53;13.03;;;20.10;85.80;;;;;;5052290;28;20868;-49
2021/11/22 00:25:45;;;;;;;12.80;12.40;;;20.00;86.00;;;;;;5051860;28;20952;-49
2021/11/22 00:28:13;;;;;;;12.70;12.30;;;20.00;86.70;;;;;;5052299;28;20472;-48
2021/11/22 00:30:40;;;;;;;13.30;12.90;;;19.90;87.10;;;;;;5051776;28;20495;-50
2021/11/22 00:33:10;;;;;;;12.90;12.40;;;19.90;87.80;;;;;;5052153;28;20929;-47
2021/11/22 00:35:37;;;;;;;12.70;12.20;;;19.80;88.30;;;;;;5051971;28;20483;-48
2021/11/22 00:38:07;;;;;;;13.20;12.70;;;19.80;88.80;;;;;;5051932;28;20446;-50
2021/11/22 00:40:35;;;;;;;12.33;12.00;;;19.70;89.00;;;;;;5051616;28;20460;-50
2021/11/22 00:43:04;;;;;;;12.90;12.50;;;19.70;89.40;;;;;;5051809;28;20448;-48
2021/11/22 00:45:32;;;;;;;13.03;12.63;;;19.70;89.90;;;;;;5051626;28;20460;-47
2021/11/22 00:48:01;;;;;;;12.97;12.57;;;19.70;90.20;;;;;;5051796;28;20452;-51
2021/11/22 00:50:30;;;;;;;13.40;12.90;;;19.60;90.40;;;;;;5051540;28;20523;-48
2021/11/22 00:52:58;;;;;;;13.53;13.00;;;19.60;90.40;;;;;;5051782;28;20820;-47
2021/11/22 00:55:25;;;;;;;13.00;12.60;;;19.60;90.80;;;;;;5051090;28;20449;-52
2021/11/22 00:57:52;;;;;;;13.03;12.60;;;19.60;91.00;;;;;;5051605;28;20455;-49
2021/11/22 01:00:20;;;;;;;12.80;12.40;;;19.50;91.20;;;;;;5051510;28;20460;-52
2021/11/22 01:02:47;;;;;;;13.53;12.93;;;19.50;91.50;;;;;;5051664;28;20813;-51
2021/11/22 01:05:15;;;;;;;12.47;12.07;;;19.40;91.70;;;;;;5051504;28;20448;-47
2021/11/22 01:07:43;;;;;;;12.90;12.50;;;19.40;91.90;;;;;;5051544;28;20447;-47
2021/11/22 01:10:11;;;;;;;13.10;12.63;;;19.40;92.00;;;;;;5051369;28;20492;-49
2021/11/22 01:12:39;;;;;;;11.90;11.50;;;19.40;92.10;;;;;;5051555;28;20794;-47
2021/11/22 01:15:09;;;;;;;12.70;12.20;;;19.40;92.20;;;;;;5051394;28;20815;-49
2021/11/22 01:17:36;;;;;;;13.63;13.13;;;19.40;92.40;;;;;;5051295;28;20448;-52
2021/11/22 01:20:04;;;;;;;13.63;13.13;;;19.30;92.50;;;;;;5051026;28;20456;-47
2021/11/22 01:22:31;;;;;;;13.00;12.50;;;19.30;92.80;;;;;;5051324;28;20452;-47
2021/11/22 01:24:59;;;;;;;13.40;12.70;;;19.20;93.00;;;;;;5051241;28;20952;-52
2021/11/22 01:27:26;;;;;;;12.77;12.37;;;19.20;93.20;;;;;;5051363;28;20444;-48
2021/11/22 01:29:53;;;;;;;13.33;12.83;;;19.20;93.20;;;;;;5050835;28;20848;-48
2021/11/22 01:32:19;;;;;;;12.67;12.23;;;19.30;93.20;;;;;;5051383;28;20452;-48
2021/11/22 01:34:46;;;;;;;12.20;11.90;;;19.20;93.30;;;;;;5051057;28;20445;-47
2021/11/22 01:37:13;;;;;;;13.30;12.83;;;19.20;93.50;;;;;;5051294;28;20456;-47
2021/11/22 01:39:40;;;;;;;13.57;13.07;;;19.20;93.70;;;;;;5051096;28;20823;-47
2021/11/22 01:42:08;;;;;;;12.73;12.33;;;19.20;93.80;;;;;;5051313;28;20543;-49
2021/11/22 01:44:35;;;;;;;12.63;12.23;;;19.20;94.00;;;;;;5051039;28;21063;-47
2021/11/22 01:47:02;;;;;;;13.10;12.70;;;19.20;94.20;;;;;;5051133;28;20444;-48
2021/11/22 01:49:29;;;;;;;13.00;12.60;;;19.20;94.20;;;;;;5050875;28;20463;-48
2021/11/22 01:51:56;;;;;;;12.00;11.70;;;19.20;94.20;;;;;;5051125;28;20448;-48
2021/11/22 01:54:22;;;;;;;12.37;11.93;;;19.10;94.30;;;;;;5050957;28;20452;-49
2021/11/22 01:56:49;;;;;;;13.50;13.00;;;19.10;94.30;;;;;;5035581;28;20832;-48
2021/11/22 01:59:18;;;;;;;12.40;12.00;;;19.10;94.50;;;;;;5050729;28;20468;-50
2021/11/22 02:01:47;;;;;;;12.37;11.87;;;19.10;94.50;;;;;;5051133;28;20451;-47
2021/11/22 02:04:15;;;;;;;13.00;12.50;;;19.10;94.50;;;;;;5051029;28;20450;-47
2021/11/22 02:06:42;;;;;;;12.93;12.53;;;19.10;94.70;;;;;;5051647;28;20447;-47
2021/11/22 02:09:09;;;;;;;12.80;12.40;;;19.10;94.80;;;;;;5054538;28;20467;-47
2021/11/22 02:11:36;;;;;;;12.37;12.03;;;19.10;94.80;;;;;;5054785;28;20483;-47
2021/11/22 02:14:04;;;;;;;12.40;12.00;;;19.00;94.90;;;;;;5054684;28;20447;-51
2021/11/22 02:16:34;;;;;;;12.97;12.57;;;19.00;95.10;;;;;;5054685;28;20454;-47
2021/11/22 02:19:02;;;;;;;12.53;12.13;;;19.00;95.10;;;;;;5054220;28;20499;-48
2021/11/22 02:21:30;;;;;;;12.50;12.10;;;19.00;95.30;;;;;;5054816;28;20470;-49
2021/11/22 02:23:57;;;;;;;13.33;12.83;;;19.00;95.30;;;;;;5054530;28;20444;-51
2021/11/22 02:26:24;;;;;;;13.10;12.70;;;19.00;95.40;;;;;;5054565;28;20929;-53
2021/11/22 02:28:51;;;;;;;12.33;12.03;;;19.00;95.50;;;;;;5054239;28;20566;-53
2021/11/22 02:31:17;;;;;;;12.77;12.37;;;19.00;95.60;;;;;;5053751;28;20484;-52
2021/11/22 02:33:44;;;;;;;13.40;12.90;;;19.00;95.60;;;;;;5054237;28;20538;-49
2021/11/22 02:36:11;;;;;;;13.13;12.73;;;19.00;95.60;;;;;;5054428;28;20630;-55
2021/11/22 02:38:40;;;;;;;13.23;12.70;;;19.00;95.80;;;;;;5054224;28;20555;-48
2021/11/22 02:41:08;;;;;;;12.77;12.37;;;19.00;95.70;;;;;;5053970;28;20444;-51
2021/11/22 02:43:40;;;;;;;13.00;12.60;;;19.00;95.60;;;;;;5054312;28;20455;-53
2021/11/22 02:46:07;;;;;;;12.90;12.50;;;19.00;95.60;;;;;;5054113;28;20444;-48
2021/11/22 02:48:34;;;;;;;12.40;12.00;;;19.00;95.70;;;;;;5053896;28;20468;-48
2021/11/22 02:51:01;;;;;;;12.60;12.10;;;18.90;95.70;;;;;;5053877;28;20487;-53
2021/11/22 02:53:29;;;;;;;12.43;12.10;;;19.00;95.70;;;;;;5053759;28;20930;-48
2021/11/22 02:56:01;;;;;;;12.73;12.33;;;19.00;95.70;;;;;;5053904;28;20547;-51
2021/11/22 02:58:28;;;;;;;13.30;12.80;;;18.90;95.80;;;;;;5053837;28;20484;-48
2021/11/22 03:00:55;;;;;;;12.53;12.13;;;18.90;95.90;;;;;;5053672;28;20801;-49
2021/11/22 03:03:28;;;;;;;12.97;12.57;;;18.90;95.90;;;;;;5053585;28;20455;-51
2021/11/22 03:06:03;;;;;;;12.73;12.33;;;18.90;96.00;;;;;;5053799;28;20937;-48
2021/11/22 03:08:30;;;;;;;13.20;12.70;;;18.90;96.10;;;;;;5053558;28;20452;-49
2021/11/22 03:10:58;;;;;;;12.83;12.43;;;18.90;96.10;;;;;;5053344;28;20480;-55
2021/11/22 03:13:25;;;;;;;12.97;12.57;;;18.90;96.10;;;;;;5053490;28;20454;-53
2021/11/22 03:15:52;;;;;;;13.47;13.07;;;18.90;96.10;;;;;;5053569;28;20452;-50
2021/11/22 03:18:18;;;;;;;13.70;13.20;;;18.90;96.00;;;;;;5053059;28;20531;-49
2021/11/22 03:20:45;;;;;;;13.40;12.90;;;18.90;96.10;;;;;;5053358;28;20441;-50
2021/11/22 03:23:12;;;;;;;13.77;13.27;;;18.90;96.10;;;;;;5053359;28;20450;-47
2021/11/22 03:25:39;;;;;;;13.40;13.00;;;18.90;96.20;;;;;;5053240;28;20448;-51
2021/11/22 03:28:07;;;;;;;12.90;12.47;;;18.80;96.10;;;;;;5053299;28;20439;-47
2021/11/22 03:30:34;;;;;;;12.87;12.47;;;18.80;96.10;;;;;;5053211;28;20488;-48
2021/11/22 03:33:01;;;;;;;13.87;13.37;;;18.80;96.20;;;;;;5052803;28;20850;-48
2021/11/22 03:35:28;;;;;;;14.57;14.07;;;18.80;96.30;;;;;;5053302;28;20446;-49
2021/11/22 03:37:55;;;;;;;13.60;12.90;;;18.80;96.20;;;;;;5053122;28;20812;-48
2021/11/22 03:40:22;;;;;;;13.30;12.90;;;18.80;96.10;;;;;;5053021;28;20881;-50
2021/11/22 03:43:00;;;;;;;13.83;13.33;;;18.90;96.20;;;;;;5052954;28;20548;-49
2021/11/22 03:45:28;;;;;;;13.47;12.97;;;18.80;96.20;;;;;;5053117;28;20482;-47
2021/11/22 03:47:55;;;;;;;13.47;13.07;;;18.70;96.30;;;;;;5052875;28;20455;-49
2021/11/22 03:50:22;;;;;;;14.30;13.80;;;18.80;96.40;;;;;;5052690;28;20845;-49
2021/11/22 03:52:49;;;;;;;13.93;13.50;;;18.80;96.40;;;;;;5052845;28;20790;-48
2021/11/22 03:55:16;;;;;;;13.83;13.33;;;18.80;96.50;;;;;;5052666;28;20543;-48
2021/11/22 03:57:43;;;;;;;13.50;13.10;;;18.80;96.40;;;;;;5052726;28;20511;-49
2021/11/22 04:00:11;;;;;;;13.80;13.30;;;18.80;96.40;;;;;;5052449;28;21015;-51
2021/11/22 04:02:39;;;;;;;14.63;14.13;;;18.80;96.40;;;;;;5052783;28;20444;-53
2021/11/22 04:05:07;;;;;;;13.30;12.90;;;18.80;96.50;;;;;;5052602;28;20444;-49
2021/11/22 04:07:34;;;;;;;13.37;12.97;;;18.80;96.50;;;;;;5052456;28;20848;-48
2021/11/22 04:10:00;;;;;;;14.43;13.90;;;18.80;96.40;;;;;;5052133;28;20471;-50
2021/11/22 04:12:27;;;;;;;14.23;13.80;;;18.80;96.30;;;;;;5052456;28;20454;-47
2021/11/22 04:14:54;;;;;;;13.57;13.10;;;18.80;96.50;;;;;;5052480;28;20455;-49
2021/11/22 04:17:21;;;;;;;14.13;13.60;;;18.80;96.40;;;;;;5052337;28;20440;-49
2021/11/22 04:19:49;;;;;;;13.80;13.40;;;18.90;96.10;;;;;;5051971;28;20472;-47
2021/11/22 04:22:17;;;;;;;14.03;13.63;;;19.00;95.90;;;;;;5052254;28;20445;-48
2021/11/22 04:24:44;;;;;;;14.33;13.83;;;19.00;95.80;;;;;;5052131;28;20450;-47
2021/11/22 04:27:12;;;;;;;13.87;13.47;;;19.00;95.90;;;;;;5052161;28;20440;-50
2021/11/22 04:29:40;;;;;;;13.70;13.30;;;18.90;96.00;;;;;;5073215;22;20499;-53
2021/11/22 04:32:08;;;;;;;13.90;13.40;;;18.90;96.10;;;;;;5051964;28;20999;-52
2021/11/22 04:34:35;;;;;;;13.93;13.50;;;18.90;96.00;;;;;;5052128;28;20441;-53
2021/11/22 04:37:04;;;;;;;13.20;12.80;;;18.90;96.00;;;;;;5052180;28;20475;-55
2021/11/22 04:39:30;;;;;;;14.80;14.30;;;18.90;96.00;;;;;;5051834;28;20539;-52
2021/11/22 04:41:57;;;;;;;14.23;13.73;;;18.90;95.90;;;;;;5051901;28;20452;-53
2021/11/22 04:44:24;;;;;;;14.33;13.93;;;18.90;95.90;;;;;;5051173;28;20448;-51
2021/11/22 04:46:51;;;;;;;14.07;13.63;;;18.90;95.90;;;;;;5051851;28;20444;-51
2021/11/22 04:49:18;;;;;;;14.43;13.93;;;18.90;96.10;;;;;;5051455;28;20957;-55
2021/11/22 04:51:45;;;;;;;13.70;13.30;;;18.90;95.90;;;;;;5051651;28;20486;-53
2021/11/22 04:54:13;;;;;;;14.20;13.70;;;18.90;96.00;;;;;;5042622;28;20445;-54
2021/11/22 04:56:40;;;;;;;14.97;14.40;;;18.90;96.00;;;;;;5031919;28;20960;-52
2021/11/22 04:59:06;;;;;;;13.73;13.30;;;18.90;96.00;;;;;;5031571;28;20465;-51
2021/11/22 05:01:33;;;;;;;13.17;12.80;;;18.90;96.00;;;;;;5031729;28;20445;-51
2021/11/22 05:04:00;;;;;;;14.80;14.30;;;18.90;96.00;;;;;;5038541;28;20451;-50
2021/11/22 05:06:27;;;;;;;14.90;14.30;;;18.90;96.00;;;;;;5051447;28;20458;-52
2021/11/22 05:08:54;;;;;;;14.83;14.30;;;18.90;96.10;;;;;;5051372;28;20455;-51
2021/11/22 05:11:22;;;;;;;14.10;13.70;;;18.80;96.10;;;;;;5051440;28;20511;-51
2021/11/22 05:13:49;;;;;;;15.83;15.23;;;18.80;96.10;;;;;;5051519;28;20440;-51
2021/11/22 05:16:16;;;;;;;15.57;15.03;;;18.90;96.20;;;;;;5040082;28;20451;-52
2021/11/22 05:18:43;;;;;;;14.60;14.10;;;18.90;96.10;;;;;;5031303;28;20968;-51
2021/11/22 05:21:09;;;;;;;14.97;14.47;;;18.90;96.10;;;;;;5031511;28;20931;-51
2021/11/22 05:23:36;;;;;;;14.57;14.07;;;18.90;96.00;;;;;;5031491;28;20809;-51
2021/11/22 05:26:03;;;;;;;15.00;14.50;;;18.90;96.10;;;;;;5031394;28;20445;-52
2021/11/22 05:28:31;;;;;;;14.47;13.97;;;18.90;96.00;;;;;;5045794;28;20463;-50
2021/11/22 05:30:58;;;;;;;13.80;13.40;;;18.90;96.10;;;;;;5050657;28;20587;-51
2021/11/22 05:33:25;;;;;;;14.50;14.00;;;18.80;96.20;;;;;;5051197;28;20451;-51
2021/11/22 05:35:52;;;;;;;14.10;13.70;;;18.90;96.10;;;;;;5051352;28;21048;-51
2021/11/22 05:38:19;;;;;;;14.90;14.40;;;18.90;95.90;;;;;;5051260;28;20444;-50
2021/11/22 05:40:45;;;;;;;14.07;13.67;;;18.90;96.00;;;;;;5037851;28;20473;-52
2021/11/22 05:43:12;;;;;;;14.10;13.70;;;18.80;96.10;;;;;;5035341;28;20449;-51
2021/11/22 05:45:41;;;;;;;14.10;13.70;;;18.90;96.20;;;;;;5035261;28;20811;-52
2021/11/22 05:48:09;;;;;;;14.60;14.20;;;18.90;96.10;;;;;;5035417;28;20441;-51
2021/11/22 05:50:37;;;;;;;14.10;13.63;;;18.90;96.10;;;;;;5034808;28;21001;-51
2021/11/22 05:53:05;;;;;;;13.80;13.40;;;18.90;96.30;;;;;;5050626;28;20890;-53
2021/11/22 05:55:37;;;;;;;13.80;13.40;;;19.20;96.40;;;;;;5062758;28;20467;-54
2021/11/22 05:58:06;;;;;;;13.63;13.20;;;19.40;95.60;;;;;;5061877;28;20452;-55
2021/11/22 06:00:34;;;;;;;13.70;13.30;;;19.60;94.90;;;;;;5060274;28;20464;-54
2021/11/22 06:03:02;;;;;;;14.67;14.07;;;19.80;94.50;;;;;;5063526;28;20523;-56
2021/11/22 06:05:29;;;;;;;14.07;13.67;;;19.90;93.90;;;;;;5045240;28;20455;-51
2021/11/22 06:07:56;;;;;;;15.30;14.70;;;20.10;93.30;;;;;;5045290;28;20540;-54
2021/11/22 06:10:23;;;;;;;15.13;14.53;;;20.00;93.30;;;;;;5044866;28;20461;-55
2021/11/22 06:12:49;;;;;;;15.10;14.60;;;20.10;92.70;;;;;;5043752;28;20588;-58
2021/11/22 06:15:16;;;;;;;15.47;14.77;;;20.20;92.30;;;;;;5041333;28;20456;-52
2021/11/22 06:17:43;;;;;;;14.97;14.47;;;20.10;92.10;;;;;;5059825;28;20540;-58
2021/11/22 06:20:12;;;;;;;14.60;14.10;;;20.20;92.00;;;;;;5062055;28;20464;-56
2021/11/22 06:22:39;;;;;;;14.57;14.17;;;20.10;92.00;;;;;;5062857;28;20436;-54
2021/11/22 06:25:07;;;;;;;15.30;14.87;;;20.20;91.80;;;;;;5063837;28;20446;-52
2021/11/22 06:27:35;;;;;;;14.67;14.27;;;20.30;91.60;;;;;;5061987;28;20447;-54
2021/11/22 06:30:02;;;;;;;15.10;14.53;;;20.30;91.30;;;;;;5041875;28;20556;-53
2021/11/22 06:32:30;;;;;;;15.30;14.83;;;20.30;91.20;;;;;;5042815;28;20485;-58
2021/11/22 06:34:58;;;;;;;14.60;14.10;;;20.30;91.10;;;;;;5041112;28;20535;-56
2021/11/22 06:37:28;;;;;;;14.53;14.13;;;20.30;90.90;;;;;;5041680;28;20505;-58
2021/11/22 06:39:55;;;;;;;14.93;14.43;;;20.20;90.90;;;;;;5043616;28;20516;-54
2021/11/22 06:42:24;;;;;;;14.67;14.17;;;20.30;90.80;;;;;;5060899;28;20474;-57
2021/11/22 06:44:51;;;;;;;14.83;14.23;;;20.20;90.80;;;;;;5060061;28;20444;-57
2021/11/22 06:47:19;;;;;;;14.10;13.70;;;20.20;90.80;;;;;;5059961;28;20448;-51
2021/11/22 06:49:46;;;;;;;11.60;11.30;;;20.20;90.70;;;;;;5042650;28;20565;-54
2021/11/22 06:52:14;;;;;;;11.70;11.40;;;20.20;90.80;;;;;;5037203;28;20480;-56
2021/11/22 06:54:43;;;;;;;12.10;11.80;;;20.20;90.80;;;;;;5039338;28;20470;-58
2021/11/22 06:57:09;;;;;;;11.50;11.20;;;20.20;90.70;;;;;;5040063;28;20516;-52
2021/11/22 06:59:36;;;;;;;12.83;12.50;;;20.10;90.70;;;;;;5051053;28;20479;-55
2021/11/22 07:02:03;;;;;;;11.90;11.50;;;20.10;90.70;;;;;;5058904;28;20830;-53
2021/11/22 07:04:30;;;;;;;13.53;13.13;;;20.00;90.80;;;;;;5062794;28;20463;-54
2021/11/22 07:06:57;;;;;;;12.30;12.00;;;20.00;90.80;;;;;;5063332;28;20479;-57
2021/11/22 07:09:25;;;;;;;12.07;11.77;;;20.00;90.90;;;;;;5062558;28;20460;-54
2021/11/22 07:11:54;;;;;;;11.47;11.17;;;19.80;91.00;;;;;;5044563;28;21006;-55
2021/11/22 07:14:20;;;;;;;11.73;11.43;;;19.70;91.20;;;;;;5041743;28;21076;-57
2021/11/22 07:16:49;;;;;;;12.27;11.97;;;19.70;91.40;;;;;;5041425;28;20445;-54
2021/11/22 07:19:16;;;;;;;12.67;12.37;;;19.70;91.60;;;;;;5040291;28;20465;-56
2021/11/22 07:21:42;;;;;;;10.90;10.60;;;19.60;91.70;;;;;;5040731;28;20470;-54
2021/11/22 07:24:09;;;;;;;11.13;10.83;;;19.60;91.80;;;;;;5058589;28;20451;-55
2021/11/22 07:26:37;;;;;;;11.90;11.60;;;19.60;91.80;;;;;;5059989;28;20812;-53
2021/11/22 07:29:07;;;;;;;12.00;11.70;;;19.50;91.90;;;;;;5058364;28;20558;-59
2021/11/22 07:31:34;;;;;;;11.07;10.77;;;19.50;92.00;;;;;;5047062;28;20481;-58
2021/11/22 07:34:01;;;;;;;11.70;11.40;;;19.50;92.20;;;;;;5037118;28;20459;-50
2021/11/22 07:36:28;;;;;;;12.30;11.90;;;19.40;92.20;;;;;;5039277;28;20445;-53
2021/11/22 07:38:55;;;;;;;13.17;12.70;;;19.40;92.40;;;;;;5040834;28;20447;-57
2021/11/22 07:41:21;;;;;;;12.90;12.60;;;19.40;92.40;;;;;;5058945;28;20964;-53
2021/11/22 07:43:49;;;;;;;13.00;12.70;;;19.40;92.50;;;;;;5055667;28;20448;-55
2021/11/22 07:46:17;;;;;;;12.73;12.43;;;19.30;92.50;;;;;;5059752;28;20491;-52
2021/11/22 07:48:44;;;;;;;12.57;12.27;;;19.30;92.60;;;;;;5060121;28;20456;-52
2021/11/22 07:51:11;;;;;;;12.73;12.33;;;19.30;92.70;;;;;;5059925;28;20457;-56
2021/11/22 07:53:39;;;;;;;11.07;10.67;;;19.30;92.70;;;;;;5046456;28;20492;-52
2021/11/22 07:56:07;;;;;;;11.43;11.13;;;19.30;92.80;;;;;;5040156;28;20460;-52
2021/11/22 07:58:34;;;;;;;13.00;12.70;;;19.30;92.80;;;;;;5038936;28;20449;-54
2021/11/22 08:01:01;;;;;;;13.43;13.03;;;19.30;92.80;;;;;;5038215;28;21049;-53
2021/11/22 08:03:29;;;;;;;13.63;13.23;;;19.30;92.80;;;;;;5053308;28;20837;-53
2021/11/22 08:05:57;;;;;;;13.87;13.47;;;19.20;92.80;;;;;;5050788;28;20477;-56
2021/11/22 08:08:28;;;;;;;14.30;13.90;;;19.20;93.40;;;;;;5049102;28;20441;-53
2021/11/22 08:11:05;;;;;;;13.83;13.43;;;19.30;93.30;;;;;;5052309;28;20882;-51
2021/11/22 08:13:33;;;;;;;12.80;12.50;;;19.30;93.70;;;;;;5053511;28;20894;-50
2021/11/22 08:16:01;;;;;;;12.77;12.47;;;19.40;93.90;;;;;;5057619;28;20456;-55
2021/11/22 08:18:30;;;;;;;13.10;12.80;;;19.20;93.60;;;;;;5037777;28;20449;-55
2021/11/22 08:20:57;;;;;;;13.90;13.50;;;19.10;93.80;;;;;;5036859;28;20536;-52
2021/11/22 08:23:24;;;;;;;13.50;13.10;;;19.10;94.70;;;;;;5034606;28;20442;-57
2021/11/22 08:25:51;;;;;;;13.37;12.97;;;19.20;95.80;;;;;;5035356;28;20509;-56
2021/11/22 08:28:18;;;;;;;13.13;12.73;;;19.20;96.70;;;;;;5051600;28;20631;-56
2021/11/22 08:30:44;;;;;;;13.00;12.70;;;19.20;98.00;;;;;;5052449;28;20802;-55
2021/11/22 08:33:14;;;;;;;13.30;12.90;;;19.30;98.60;;;;;;5052377;28;20490;-50
2021/11/22 08:35:43;;;;;;;13.47;12.97;;;19.30;98.00;;;;;;5053479;28;20455;-51
2021/11/22 08:38:10;;;;;;;14.60;14.10;;;19.40;98.40;;;;;;5035810;28;20444;-50
2021/11/22 08:40:41;;;;;;;14.07;13.67;;;19.30;98.40;;;;;;5034217;28;20830;-52
2021/11/22 08:43:09;;;;;;;12.70;12.30;;;19.40;98.60;;;;;;5033743;28;20453;-54
2021/11/22 08:45:37;;;;;;;12.97;12.40;;;19.40;98.60;;;;;;5034998;28;20452;-52
2021/11/22 08:48:05;;;;;;;12.80;12.50;;;19.40;98.60;;;;;;5051666;28;20519;-52
2021/11/22 08:50:32;;;;;;;13.13;12.83;;;19.40;98.90;;;;;;5054995;28;20470;-51
2021/11/22 08:53:00;;;;;;;13.33;12.97;;;19.40;98.80;;;;;;5054218;28;21001;-53
2021/11/22 08:55:27;;;;;;;14.60;13.70;;;19.40;98.70;;;;;;5035394;28;20521;-53
2021/11/22 08:57:55;;;;;;;14.60;13.90;;;19.30;99.10;;;;;;5035924;28;20449;-54
2021/11/22 09:00:25;;;;;;;14.10;13.70;;;19.30;99.20;;;;;;5033118;28;20477;-52
2021/11/22 09:02:52;;;;;;;14.67;14.17;;;19.40;99.90;;;;;;5033095;28;20548;-52
2021/11/22 09:05:19;;;;;;;14.33;13.83;;;20.30;99.80;;;;;;5054119;28;20538;-53
2021/11/22 09:07:45;;;;;;;14.93;14.47;;;21.00;97.30;;;;;;5055027;28;20758;-54
2021/11/22 09:10:14;;;;;;;13.50;13.10;;;21.40;95.90;;;;;;5052588;28;20478;-58
2021/11/22 09:12:41;;;;;;;13.90;13.40;;;22.00;94.80;;;;;;5052409;28;20570;-52
2021/11/22 09:15:08;;;;;;;13.10;12.70;;;23.00;91.90;;;;;;5033460;28;20949;-52
2021/11/22 09:17:35;;;;;;;14.30;13.80;;;23.50;89.70;;;;;;5031643;28;20449;-52
2021/11/22 09:20:02;;;;;;;13.60;13.20;;;23.70;86.30;;;;;;5031457;28;20481;-50
2021/11/22 09:22:29;;;;;;;13.00;12.60;;;23.80;84.50;;;;;;5031647;28;20445;-50
2021/11/22 09:24:56;;;;;;;13.33;12.90;;;23.90;83.20;;;;;;5034120;28;20866;-53
2021/11/22 09:27:24;;;;;;;13.50;13.10;;;24.00;81.80;;;;;;5032538;28;20444;-52
2021/11/22 09:29:51;;;;;;;14.33;13.83;;;24.10;80.70;;;;;;5033020;28;20827;-50
2021/11/22 09:32:17;;;;;;;13.23;12.83;;;24.10;79.90;;;;;;5032183;28;20480;-50
2021/11/22 09:34:44;;;;;;;13.40;13.00;;;24.10;79.40;;;;;;5044798;28;20452;-55
2021/11/22 09:37:11;;;;;;;13.53;13.10;;;24.10;79.30;;;;;;5055519;28;20875;-53
2021/11/22 09:39:38;;;;;;;13.50;13.10;;;24.50;77.00;;;;;;5053674;28;20432;-55
2021/11/22 09:42:06;;;;;;;13.90;13.50;;;24.80;75.80;;;;;;5045659;28;20198;-52
2021/11/22 09:44:34;;;;;;;14.43;13.83;;;24.90;73.50;;;;;;5032940;28;20455;-54
2021/11/22 09:47:01;;;;;;;14.30;13.90;;;25.00;73.20;;;;;;5031477;28;20917;-51
2021/11/22 09:49:28;;;;;;;13.97;13.57;;;25.00;72.60;;;;;;5031368;28;20473;-51
2021/11/22 09:51:56;;;;;;;13.93;13.43;;;25.10;72.00;;;;;;5040305;28;20451;-53
2021/11/22 09:54:23;;;;;;;15.03;14.53;;;25.10;71.70;;;;;;5051238;28;20446;-52
2021/11/22 09:56:52;;;;;;;14.70;14.20;;;25.50;70.80;;;;;;5051115;28;20448;-54
2021/11/22 09:59:21;;;;;;;16.33;15.80;;;25.80;68.40;;;;;;5050020;28;20468;-58
2021/11/22 10:01:54;;;;;;;13.20;12.80;;;25.90;66.70;;;;;;5033848;28;20447;-58
2021/11/22 10:04:21;;;;;;;14.10;13.70;;;25.90;65.10;;;;;;5034467;28;20206;-53
2021/11/22 10:06:51;;;;;;;15.20;14.80;;;25.90;64.40;;;;;;5034328;28;20455;-58
2021/11/22 10:09:42;;;;;;;14.47;13.97;;;26.00;63.80;;;;;;5046573;28;20479;-55
2021/11/22 10:12:16;;;;;;;13.00;12.60;;;26.00;63.70;;;;;;5051495;28;20471;-53
2021/11/22 10:14:45;;;;;;;13.37;12.97;;;26.00;63.20;;;;;;5051144;28;20256;-52
2021/11/22 10:17:39;;;;;;;13.70;13.30;;;26.00;63.20;;;;;;5050909;28;20454;-50
2021/11/22 10:20:18;;;;;;;14.20;13.70;;;25.90;63.20;;;;;;5030727;28;20479;-51
2021/11/22 10:22:49;;;;;;;14.97;14.37;;;25.70;63.20;;;;;;5033054;28;20444;-55
2021/11/22 10:25:18;;;;;;;15.03;14.53;;;25.70;63.40;;;;;;5034429;28;20441;-50
2021/11/22 10:27:45;;;;;;;15.60;15.00;;;26.10;62.60;;;;;;5031502;28;20540;-49
2021/11/22 10:30:27;;;;;;;15.03;14.40;;;26.50;60.90;;;;;;5034775;28;20551;-53
2021/11/22 10:32:57;;;;;;;15.93;15.43;;;26.70;59.70;;;;;;5034644;28;20891;-48
2021/11/22 10:35:26;;;;;;;15.20;14.70;;;26.70;59.00;;;;;;5034374;28;20451;-49
2021/11/22 10:37:58;;;;;;;15.53;15.03;;;26.70;58.80;;;;;;5034296;28;20444;-50
2021/11/22 10:40:26;;;;;;;15.53;15.03;;;26.70;58.60;;;;;;5034265;28;20471;-55
2021/11/22 10:42:55;;;;;;;16.03;15.53;;;26.80;58.30;;;;;;5034153;28;20443;-50
2021/11/22 10:45:26;;;;;;;16.37;15.87;;;26.90;58.00;;;;;;5034360;28;20447;-50
2021/11/22 10:48:19;;;;;;;15.90;15.40;;;26.90;57.50;;;;;;5033799;28;20747;-53
2021/11/22 10:50:50;;;;;;;14.90;14.50;;;27.00;57.10;;;;;;5033679;28;20484;-49
2021/11/22 10:53:33;;;;;;;15.40;14.90;;;27.40;56.60;;;;;;5034149;28;20481;-54
2021/11/22 10:56:02;;;;;;;15.50;15.00;;;27.90;55.10;;;;;;5034228;28;20807;-52
2021/11/22 10:58:38;;;;;;;14.90;14.50;;;28.10;54.00;;;;;;5033727;28;20463;-50
2021/11/22 11:01:31;;;;;;;15.47;14.77;;;28.10;53.70;;;;;;5033902;28;20477;-52
2021/11/22 11:04:04;;;;;;;14.30;13.80;;;28.20;53.40;;;;;;5033765;28;20447;-52
2021/11/22 11:06:35;;;;;;;15.67;15.17;;;28.00;52.70;;;;;;5033741;28;20532;-51
2021/11/22 11:09:02;;;;;;;16.13;15.60;;;28.30;52.70;;;;;;5033440;28;20480;-50
2021/11/22 11:11:29;;;;;;;16.20;15.70;;;28.40;52.20;;;;;;5033772;28;20487;-50
2021/11/22 11:13:56;;;;;;;15.70;15.20;;;28.70;51.80;;;;;;5033705;28;20488;-52
2021/11/22 11:16:23;;;;;;;15.20;14.80;;;29.20;50.90;;;;;;5033456;28;20877;-49
2021/11/22 11:18:57;;;;;;;15.97;15.47;;;29.90;49.60;;;;;;5033332;28;20957;-50
2021/11/22 11:21:31;;;;;;;15.93;15.43;;;30.30;48.10;;;;;;5033543;28;20456;-55
2021/11/22 11:24:00;;;;;;;16.30;15.57;;;30.60;47.00;;;;;;5033483;28;20444;-56
2021/11/22 11:26:28;;;;;;;17.47;16.87;;;30.50;46.20;;;;;;5033275;28;21045;-53
2021/11/22 11:28:56;;;;;;;17.13;16.63;;;30.40;46.00;;;;;;5033042;28;20860;-51
2021/11/22 11:31:25;;;;;;;16.40;15.90;;;30.20;46.20;;;;;;5033328;28;20490;-53
2021/11/22 11:33:52;;;;;;;15.00;14.60;;;30.20;46.20;;;;;;5033254;28;21112;-51
2021/11/22 11:36:52;;;;;;;15.70;15.20;;;30.00;46.20;;;;;;5032862;28;20449;-51
2021/11/22 11:39:48;;;;;;;16.40;15.90;;;30.30;45.90;;;;;;5012868;28;20488;-53
2021/11/22 11:42:29;;;;;;;14.87;14.37;;;30.50;45.10;;;;;;5033171;28;20441;-49
2021/11/22 11:45:06;;;;;;;16.13;15.63;;;30.70;45.00;;;;;;5033002;28;20938;-52
2021/11/22 11:47:41;;;;;;;15.63;15.20;;;31.00;44.40;;;;;;5033150;28;20445;-55
2021/11/22 11:50:19;;;;;;;14.83;14.43;;;30.90;44.30;;;;;;5032830;28;20474;-51
2021/11/22 11:52:55;;;;;;;15.67;15.17;;;30.70;44.00;;;;;;5032782;28;20486;-51
2021/11/22 11:55:23;;;;;;;16.13;15.63;;;31.10;44.10;;;;;;5032738;28;20444;-54
2021/11/22 11:57:51;;;;;;;17.90;17.30;;;31.20;43.40;;;;;;5032677;28;20467;-52
2021/11/22 12:00:23;;;;;;;15.80;15.30;;;30.80;43.40;;;;;;5032630;28;20460;-50
2021/11/22 12:03:00;;;;;;;16.70;15.90;;;30.20;44.40;;;;;;5032867;28;20455;-53
2021/11/22 12:05:43;;;;;;;16.87;16.37;;;30.20;44.40;;;;;;5032355;28;20441;-51
2021/11/22 12:08:21;;;;;;;18.27;17.67;;;29.80;44.90;;;;;;5032687;28;20455;-51
2021/11/22 12:10:50;;;;;;;16.67;16.17;;;30.10;45.10;;;;;;5032507;28;21021;-52
2021/11/22 12:13:17;;;;;;;17.17;16.67;;;30.10;44.80;;;;;;5032406;28;20538;-54
2021/11/22 12:15:46;;;;;;;16.00;15.60;;;30.00;44.70;;;;;;5032408;28;20453;-56
2021/11/22 12:18:14;;;;;;;16.17;15.67;;;30.00;44.80;;;;;;5032408;28;20445;-51
2021/11/22 12:20:49;;;;;;;15.90;15.50;;;29.70;44.90;;;;;;5032383;28;20828;-52
2021/11/22 12:23:19;;;;;;;15.60;15.20;;;29.40;45.10;;;;;;5032456;28;20937;-53
2021/11/22 12:25:51;;;;;;;16.67;16.17;;;29.10;45.60;;;;;;5032513;28;20964;-51
2021/11/22 12:28:54;;;;;;;16.50;15.90;;;28.90;45.90;;;;;;5032548;28;20519;-50
2021/11/22 12:31:31;;;;;;;17.07;16.50;;;28.70;46.30;;;;;;5032363;28;20447;-53
2021/11/22 12:34:16;;;;;;;16.47;15.97;;;28.80;46.50;;;;;;5032091;28;20488;-54
2021/11/22 12:36:52;;;;;;;18.07;17.47;;;29.10;46.30;;;;;;5032092;28;20447;-51